sensor_id;sensor_type;location;lat;lon;timestamp;P1;durP1;ratioP1;P2;durP2;ratioP2
46439;SDS011;32138;50.966;6.968;2022-08-19T00:01:40;12.43;;;10.40;;
46439;SDS011;32138;50.966;6.968;2022-08-19T00:03:44;11.70;;;10.40;;
46439;SDS011;32138;50.966;6.968;2022-08-19T00:05:45;11.30;;;10.15;;
46439;SDS011;32138;50.966;6.968;2022-08-19T00:07:45;10.98;;;9.75;;
46439;SDS011;32138;50.966;6.968;2022-08-19T00:09:46;11.23;;;10.13;;
46439;SDS011;32138;50.966;6.968;2022-08-19T00:11:47;12.23;;;10.23;;
46439;SDS011;32138;50.966;6.968;2022-08-19T00:13:49;10.30;;;9.30;;
46439;SDS011;32138;50.966;6.968;2022-08-19T00:15:50;11.38;;;10.25;;
46439;SDS011;32138;50.966;6.968;2022-08-19T00:17:51;11.07;;;9.52;;
46439;SDS011;32138;50.966;6.968;2022-08-19T00:19:52;11.77;;;10.35;;
46439;SDS011;32138;50.966;6.968;2022-08-19T00:21:53;11.23;;;9.95;;
46439;SDS011;32138;50.966;6.968;2022-08-19T00:23:56;12.13;;;10.60;;
46439;SDS011;32138;50.966;6.968;2022-08-19T00:25:58;11.93;;;10.73;;
46439;SDS011;32138;50.966;6.968;2022-08-19T00:27:58;11.07;;;9.98;;
46439;SDS011;32138;50.966;6.968;2022-08-19T00:29:59;10.93;;;9.82;;
46439;SDS011;32138;50.966;6.968;2022-08-19T00:32:03;11.80;;;10.55;;
46439;SDS011;32138;50.966;6.968;2022-08-19T00:34:05;11.43;;;10.32;;
46439;SDS011;32138;50.966;6.968;2022-08-19T00:36:06;12.07;;;9.82;;
46439;SDS011;32138;50.966;6.968;2022-08-19T00:38:09;12.48;;;11.40;;
46439;SDS011;32138;50.966;6.968;2022-08-19T00:40:11;11.88;;;10.70;;
46439;SDS011;32138;50.966;6.968;2022-08-19T00:42:13;11.77;;;10.60;;
46439;SDS011;32138;50.966;6.968;2022-08-19T00:44:17;15.30;;;11.38;;
46439;SDS011;32138;50.966;6.968;2022-08-19T00:48:26;13.10;;;11.77;;
46439;SDS011;32138;50.966;6.968;2022-08-19T00:50:27;13.18;;;10.90;;
46439;SDS011;32138;50.966;6.968;2022-08-19T00:52:32;12.38;;;11.18;;
46439;SDS011;32138;50.966;6.968;2022-08-19T00:54:36;12.40;;;11.18;;
46439;SDS011;32138;50.966;6.968;2022-08-19T00:56:38;11.98;;;10.63;;
46439;SDS011;32138;50.966;6.968;2022-08-19T00:58:41;12.02;;;10.93;;
46439;SDS011;32138;50.966;6.968;2022-08-19T01:00:42;11.63;;;10.43;;
46439;SDS011;32138;50.966;6.968;2022-08-19T01:02:43;12.57;;;11.27;;
46439;SDS011;32138;50.966;6.968;2022-08-19T01:04:44;11.85;;;10.70;;
46439;SDS011;32138;50.966;6.968;2022-08-19T01:06:45;12.70;;;10.65;;
46439;SDS011;32138;50.966;6.968;2022-08-19T01:08:46;12.60;;;10.65;;
46439;SDS011;32138;50.966;6.968;2022-08-19T01:10:50;11.73;;;10.63;;
46439;SDS011;32138;50.966;6.968;2022-08-19T01:12:55;12.05;;;10.73;;
46439;SDS011;32138;50.966;6.968;2022-08-19T01:14:58;12.95;;;10.88;;
46439;SDS011;32138;50.966;6.968;2022-08-19T01:16:59;12.23;;;10.73;;
46439;SDS011;32138;50.966;6.968;2022-08-19T01:19:02;11.82;;;10.20;;
46439;SDS011;32138;50.966;6.968;2022-08-19T01:22:06;11.85;;;10.20;;
46439;SDS011;32138;50.966;6.968;2022-08-19T01:23:42;14.15;;;10.73;;
46439;SDS011;32138;50.966;6.968;2022-08-19T01:25:46;13.30;;;12.00;;
46439;SDS011;32138;50.966;6.968;2022-08-19T01:27:51;12.40;;;10.57;;
46439;SDS011;32138;50.966;6.968;2022-08-19T01:29:52;13.07;;;11.73;;
46439;SDS011;32138;50.966;6.968;2022-08-19T01:31:53;14.23;;;9.80;;
46439;SDS011;32138;50.966;6.968;2022-08-19T01:33:55;11.05;;;10.05;;
46439;SDS011;32138;50.966;6.968;2022-08-19T01:36:07;11.65;;;10.45;;
46439;SDS011;32138;50.966;6.968;2022-08-19T01:38:25;13.00;;;10.93;;
46439;SDS011;32138;50.966;6.968;2022-08-19T01:40:30;11.70;;;10.60;;
46439;SDS011;32138;50.966;6.968;2022-08-19T01:42:33;17.00;;;10.93;;
46439;SDS011;32138;50.966;6.968;2022-08-19T01:44:35;16.30;;;11.30;;
46439;SDS011;32138;50.966;6.968;2022-08-19T01:46:36;13.55;;;11.27;;
46439;SDS011;32138;50.966;6.968;2022-08-19T01:48:38;14.57;;;10.93;;
46439;SDS011;32138;50.966;6.968;2022-08-19T01:50:41;14.45;;;13.18;;
46439;SDS011;32138;50.966;6.968;2022-08-19T01:52:43;12.80;;;11.60;;
46439;SDS011;32138;50.966;6.968;2022-08-19T01:54:44;15.77;;;12.40;;
46439;SDS011;32138;50.966;6.968;2022-08-19T01:56:45;15.65;;;12.82;;
46439;SDS011;32138;50.966;6.968;2022-08-19T01:58:51;15.23;;;12.23;;
46439;SDS011;32138;50.966;6.968;2022-08-19T02:00:58;15.80;;;14.13;;
46439;SDS011;32138;50.966;6.968;2022-08-19T02:02:59;14.00;;;12.63;;
46439;SDS011;32138;50.966;6.968;2022-08-19T02:05:00;17.58;;;12.43;;
46439;SDS011;32138;50.966;6.968;2022-08-19T02:07:01;14.25;;;12.40;;
46439;SDS011;32138;50.966;6.968;2022-08-19T02:09:03;13.55;;;11.30;;
46439;SDS011;32138;50.966;6.968;2022-08-19T02:11:05;13.95;;;11.38;;
46439;SDS011;32138;50.966;6.968;2022-08-19T02:13:07;14.98;;;12.98;;
46439;SDS011;32138;50.966;6.968;2022-08-19T02:15:09;13.77;;;12.48;;
46439;SDS011;32138;50.966;6.968;2022-08-19T02:17:11;15.75;;;12.75;;
46439;SDS011;32138;50.966;6.968;2022-08-19T02:19:12;14.90;;;13.40;;
46439;SDS011;32138;50.966;6.968;2022-08-19T02:21:12;15.30;;;12.30;;
46439;SDS011;32138;50.966;6.968;2022-08-19T02:23:14;14.43;;;12.20;;
46439;SDS011;32138;50.966;6.968;2022-08-19T02:25:16;13.85;;;12.55;;
46439;SDS011;32138;50.966;6.968;2022-08-19T02:27:17;15.63;;;12.25;;
46439;SDS011;32138;50.966;6.968;2022-08-19T02:29:18;15.48;;;12.38;;
46439;SDS011;32138;50.966;6.968;2022-08-19T02:31:21;15.63;;;14.23;;
46439;SDS011;32138;50.966;6.968;2022-08-19T02:33:24;13.48;;;12.18;;
46439;SDS011;32138;50.966;6.968;2022-08-19T02:35:25;16.08;;;13.00;;
46439;SDS011;32138;50.966;6.968;2022-08-19T02:37:26;14.45;;;12.95;;
46439;SDS011;32138;50.966;6.968;2022-08-19T02:39:46;17.92;;;14.07;;
46439;SDS011;32138;50.966;6.968;2022-08-19T02:41:46;14.13;;;12.30;;
46439;SDS011;32138;50.966;6.968;2022-08-19T02:43:48;13.07;;;11.82;;
46439;SDS011;32138;50.966;6.968;2022-08-19T02:45:49;13.20;;;11.65;;
46439;SDS011;32138;50.966;6.968;2022-08-19T02:47:51;12.68;;;11.32;;
46439;SDS011;32138;50.966;6.968;2022-08-19T02:49:51;14.32;;;12.82;;
46439;SDS011;32138;50.966;6.968;2022-08-19T02:51:52;14.88;;;12.90;;
46439;SDS011;32138;50.966;6.968;2022-08-19T02:53:54;13.93;;;12.63;;
46439;SDS011;32138;50.966;6.968;2022-08-19T02:55:55;15.43;;;12.98;;
46439;SDS011;32138;50.966;6.968;2022-08-19T02:57:56;13.82;;;12.43;;
46439;SDS011;32138;50.966;6.968;2022-08-19T02:59:57;16.13;;;14.40;;
46439;SDS011;32138;50.966;6.968;2022-08-19T03:01:58;16.42;;;13.27;;
46439;SDS011;32138;50.966;6.968;2022-08-19T03:04:01;18.80;;;14.00;;
46439;SDS011;32138;50.966;6.968;2022-08-19T03:06:09;14.70;;;13.30;;
46439;SDS011;32138;50.966;6.968;2022-08-19T03:08:13;14.20;;;12.90;;
46439;SDS011;32138;50.966;6.968;2022-08-19T03:10:14;14.98;;;12.40;;
46439;SDS011;32138;50.966;6.968;2022-08-19T03:12:15;16.23;;;14.52;;
46439;SDS011;32138;50.966;6.968;2022-08-19T03:14:16;20.70;;;13.05;;
46439;SDS011;32138;50.966;6.968;2022-08-19T03:16:18;15.27;;;13.77;;
46439;SDS011;32138;50.966;6.968;2022-08-19T03:18:22;14.68;;;13.18;;
46439;SDS011;32138;50.966;6.968;2022-08-19T03:20:23;16.88;;;13.77;;
46439;SDS011;32138;50.966;6.968;2022-08-19T03:22:25;14.73;;;13.38;;
46439;SDS011;32138;50.966;6.968;2022-08-19T03:24:26;16.58;;;15.00;;
46439;SDS011;32138;50.966;6.968;2022-08-19T03:26:27;16.58;;;14.98;;
46439;SDS011;32138;50.966;6.968;2022-08-19T03:28:29;16.60;;;14.75;;
46439;SDS011;32138;50.966;6.968;2022-08-19T03:30:29;16.88;;;15.15;;
46439;SDS011;32138;50.966;6.968;2022-08-19T03:32:30;18.05;;;15.02;;
46439;SDS011;32138;50.966;6.968;2022-08-19T03:34:32;16.98;;;15.45;;
46439;SDS011;32138;50.966;6.968;2022-08-19T03:36:36;17.45;;;15.85;;
46439;SDS011;32138;50.966;6.968;2022-08-19T03:38:39;19.38;;;15.82;;
46439;SDS011;32138;50.966;6.968;2022-08-19T03:40:47;18.33;;;16.52;;
46439;SDS011;32138;50.966;6.968;2022-08-19T03:42:48;16.75;;;15.05;;
46439;SDS011;32138;50.966;6.968;2022-08-19T03:44:49;15.45;;;14.05;;
46439;SDS011;32138;50.966;6.968;2022-08-19T03:46:54;19.50;;;16.00;;
46439;SDS011;32138;50.966;6.968;2022-08-19T03:48:58;17.75;;;15.45;;
46439;SDS011;32138;50.966;6.968;2022-08-19T03:51:14;21.55;;;17.10;;
46439;SDS011;32138;50.966;6.968;2022-08-19T03:53:25;17.63;;;15.40;;
46439;SDS011;32138;50.966;6.968;2022-08-19T03:55:28;19.58;;;17.48;;
46439;SDS011;32138;50.966;6.968;2022-08-19T03:57:29;18.55;;;16.48;;
46439;SDS011;32138;50.966;6.968;2022-08-19T03:59:31;20.15;;;18.02;;
46439;SDS011;32138;50.966;6.968;2022-08-19T04:01:35;23.13;;;20.45;;
46439;SDS011;32138;50.966;6.968;2022-08-19T04:03:36;22.58;;;19.80;;
46439;SDS011;32138;50.966;6.968;2022-08-19T04:05:39;23.48;;;16.83;;
46439;SDS011;32138;50.966;6.968;2022-08-19T04:07:39;21.13;;;18.63;;
46439;SDS011;32138;50.966;6.968;2022-08-19T04:09:40;22.15;;;18.45;;
46439;SDS011;32138;50.966;6.968;2022-08-19T04:11:47;23.38;;;21.13;;
46439;SDS011;32138;50.966;6.968;2022-08-19T04:13:54;22.05;;;19.98;;
46439;SDS011;32138;50.966;6.968;2022-08-19T04:15:55;22.42;;;20.30;;
46439;SDS011;32138;50.966;6.968;2022-08-19T04:17:56;21.05;;;19.02;;
46439;SDS011;32138;50.966;6.968;2022-08-19T04:19:57;21.40;;;19.38;;
46439;SDS011;32138;50.966;6.968;2022-08-19T04:21:58;22.75;;;20.67;;
46439;SDS011;32138;50.966;6.968;2022-08-19T04:23:59;22.73;;;20.45;;
46439;SDS011;32138;50.966;6.968;2022-08-19T04:26:00;23.52;;;21.33;;
46439;SDS011;32138;50.966;6.968;2022-08-19T04:28:01;93.95;;;84.93;;
46439;SDS011;32138;50.966;6.968;2022-08-19T04:30:02;98.95;;;89.10;;
46439;SDS011;32138;50.966;6.968;2022-08-19T04:32:03;94.43;;;85.03;;
46439;SDS011;32138;50.966;6.968;2022-08-19T04:34:06;41.88;;;37.72;;
46439;SDS011;32138;50.966;6.968;2022-08-19T04:36:16;27.23;;;24.42;;
46439;SDS011;32138;50.966;6.968;2022-08-19T04:38:24;25.27;;;22.85;;
46439;SDS011;32138;50.966;6.968;2022-08-19T04:40:25;28.15;;;24.35;;
46439;SDS011;32138;50.966;6.968;2022-08-19T04:42:44;26.42;;;23.75;;
46439;SDS011;32138;50.966;6.968;2022-08-19T04:44:45;27.40;;;24.77;;
46439;SDS011;32138;50.966;6.968;2022-08-19T04:46:49;25.65;;;23.10;;
46439;SDS011;32138;50.966;6.968;2022-08-19T04:48:51;27.83;;;23.95;;
46439;SDS011;32138;50.966;6.968;2022-08-19T04:50:54;27.20;;;24.55;;
46439;SDS011;32138;50.966;6.968;2022-08-19T04:52:59;27.85;;;25.05;;
46439;SDS011;32138;50.966;6.968;2022-08-19T04:54:59;28.27;;;25.30;;
46439;SDS011;32138;50.966;6.968;2022-08-19T04:57:00;30.88;;;27.30;;
46439;SDS011;32138;50.966;6.968;2022-08-19T04:59:01;28.35;;;25.08;;
46439;SDS011;32138;50.966;6.968;2022-08-19T05:01:05;27.92;;;25.00;;
46439;SDS011;32138;50.966;6.968;2022-08-19T05:03:06;28.02;;;23.58;;
46439;SDS011;32138;50.966;6.968;2022-08-19T05:05:08;25.25;;;22.95;;
46439;SDS011;32138;50.966;6.968;2022-08-19T05:07:09;31.40;;;27.73;;
46439;SDS011;32138;50.966;6.968;2022-08-19T05:09:09;29.30;;;26.50;;
46439;SDS011;32138;50.966;6.968;2022-08-19T05:11:12;28.17;;;25.40;;
46439;SDS011;32138;50.966;6.968;2022-08-19T05:13:17;28.50;;;25.52;;
46439;SDS011;32138;50.966;6.968;2022-08-19T05:15:19;35.20;;;31.23;;
46439;SDS011;32138;50.966;6.968;2022-08-19T05:17:19;30.10;;;25.88;;
46439;SDS011;32138;50.966;6.968;2022-08-19T05:19:20;34.33;;;30.58;;
46439;SDS011;32138;50.966;6.968;2022-08-19T05:21:41;36.00;;;31.92;;
46439;SDS011;32138;50.966;6.968;2022-08-19T05:24:01;39.80;;;33.78;;
46439;SDS011;32138;50.966;6.968;2022-08-19T05:26:07;44.85;;;39.20;;
46439;SDS011;32138;50.966;6.968;2022-08-19T05:28:10;43.60;;;39.03;;
46439;SDS011;32138;50.966;6.968;2022-08-19T05:30:11;42.90;;;38.72;;
46439;SDS011;32138;50.966;6.968;2022-08-19T05:32:12;45.03;;;40.53;;
46439;SDS011;32138;50.966;6.968;2022-08-19T05:34:13;43.83;;;39.20;;
46439;SDS011;32138;50.966;6.968;2022-08-19T05:36:14;44.78;;;40.53;;
46439;SDS011;32138;50.966;6.968;2022-08-19T05:38:16;45.60;;;41.08;;
46439;SDS011;32138;50.966;6.968;2022-08-19T05:40:18;48.75;;;43.92;;
46439;SDS011;32138;50.966;6.968;2022-08-19T05:42:18;52.22;;;47.28;;
46439;SDS011;32138;50.966;6.968;2022-08-19T05:44:20;65.93;;;59.53;;
46439;SDS011;32138;50.966;6.968;2022-08-19T05:46:22;106.65;;;95.85;;
46439;SDS011;32138;50.966;6.968;2022-08-19T05:48:23;61.55;;;55.63;;
46439;SDS011;32138;50.966;6.968;2022-08-19T05:50:24;57.80;;;51.88;;
46439;SDS011;32138;50.966;6.968;2022-08-19T05:52:28;48.17;;;43.08;;
46439;SDS011;32138;50.966;6.968;2022-08-19T05:54:29;50.42;;;45.33;;
46439;SDS011;32138;50.966;6.968;2022-08-19T05:56:29;51.10;;;45.60;;
46439;SDS011;32138;50.966;6.968;2022-08-19T05:58:31;47.90;;;42.72;;
46439;SDS011;32138;50.966;6.968;2022-08-19T06:00:33;46.65;;;41.88;;
46439;SDS011;32138;50.966;6.968;2022-08-19T06:02:35;46.78;;;42.25;;
46439;SDS011;32138;50.966;6.968;2022-08-19T06:04:37;47.45;;;42.75;;
46439;SDS011;32138;50.966;6.968;2022-08-19T06:06:39;46.08;;;39.00;;
46439;SDS011;32138;50.966;6.968;2022-08-19T06:08:40;43.50;;;39.17;;
46439;SDS011;32138;50.966;6.968;2022-08-19T06:10:42;42.92;;;38.75;;
46439;SDS011;32138;50.966;6.968;2022-08-19T06:12:43;44.97;;;40.50;;
46439;SDS011;32138;50.966;6.968;2022-08-19T06:14:44;42.45;;;38.20;;
46439;SDS011;32138;50.966;6.968;2022-08-19T06:16:45;41.20;;;37.08;;
46439;SDS011;32138;50.966;6.968;2022-08-19T06:18:46;42.45;;;38.40;;
46439;SDS011;32138;50.966;6.968;2022-08-19T06:20:46;40.13;;;36.17;;
46439;SDS011;32138;50.966;6.968;2022-08-19T06:22:48;40.33;;;36.42;;
46439;SDS011;32138;50.966;6.968;2022-08-19T06:24:51;43.25;;;39.17;;
46439;SDS011;32138;50.966;6.968;2022-08-19T06:26:54;43.47;;;39.20;;
46439;SDS011;32138;50.966;6.968;2022-08-19T06:28:56;41.67;;;37.60;;
46439;SDS011;32138;50.966;6.968;2022-08-19T06:30:57;42.17;;;38.22;;
46439;SDS011;32138;50.966;6.968;2022-08-19T06:32:58;40.85;;;36.70;;
46439;SDS011;32138;50.966;6.968;2022-08-19T06:34:58;41.45;;;37.05;;
46439;SDS011;32138;50.966;6.968;2022-08-19T06:37:00;39.53;;;35.47;;
46439;SDS011;32138;50.966;6.968;2022-08-19T06:39:05;39.63;;;35.83;;
46439;SDS011;32138;50.966;6.968;2022-08-19T06:41:11;41.42;;;37.45;;
46439;SDS011;32138;50.966;6.968;2022-08-19T06:43:12;41.45;;;37.42;;
46439;SDS011;32138;50.966;6.968;2022-08-19T06:45:15;39.08;;;35.47;;
46439;SDS011;32138;50.966;6.968;2022-08-19T06:47:19;39.53;;;35.15;;
46439;SDS011;32138;50.966;6.968;2022-08-19T06:49:21;70.68;;;63.75;;
46439;SDS011;32138;50.966;6.968;2022-08-19T06:51:23;45.35;;;40.80;;
46439;SDS011;32138;50.966;6.968;2022-08-19T06:53:25;38.92;;;35.08;;
46439;SDS011;32138;50.966;6.968;2022-08-19T06:55:28;39.97;;;35.90;;
46439;SDS011;32138;50.966;6.968;2022-08-19T06:57:30;37.97;;;34.05;;
46439;SDS011;32138;50.966;6.968;2022-08-19T06:59:32;35.47;;;31.98;;
46439;SDS011;32138;50.966;6.968;2022-08-19T07:01:34;37.72;;;34.13;;
46439;SDS011;32138;50.966;6.968;2022-08-19T07:03:41;38.70;;;34.88;;
46439;SDS011;32138;50.966;6.968;2022-08-19T07:05:41;37.05;;;33.38;;
46439;SDS011;32138;50.966;6.968;2022-08-19T07:07:43;36.00;;;32.22;;
46439;SDS011;32138;50.966;6.968;2022-08-19T07:09:44;37.13;;;33.05;;
46439;SDS011;32138;50.966;6.968;2022-08-19T07:11:46;36.80;;;33.00;;
46439;SDS011;32138;50.966;6.968;2022-08-19T07:13:49;37.92;;;34.08;;
46439;SDS011;32138;50.966;6.968;2022-08-19T07:15:51;38.47;;;34.70;;
46439;SDS011;32138;50.966;6.968;2022-08-19T07:17:52;39.08;;;35.30;;
46439;SDS011;32138;50.966;6.968;2022-08-19T07:19:52;38.45;;;34.65;;
46439;SDS011;32138;50.966;6.968;2022-08-19T07:21:54;40.38;;;36.63;;
46439;SDS011;32138;50.966;6.968;2022-08-19T07:23:56;37.50;;;34.10;;
46439;SDS011;32138;50.966;6.968;2022-08-19T07:26:05;37.17;;;33.05;;
46439;SDS011;32138;50.966;6.968;2022-08-19T07:28:17;37.08;;;33.05;;
46439;SDS011;32138;50.966;6.968;2022-08-19T07:30:18;34.33;;;30.92;;
46439;SDS011;32138;50.966;6.968;2022-08-19T07:32:19;38.25;;;34.05;;
46439;SDS011;32138;50.966;6.968;2022-08-19T07:34:20;35.13;;;31.52;;
46439;SDS011;32138;50.966;6.968;2022-08-19T07:36:22;34.50;;;31.20;;
46439;SDS011;32138;50.966;6.968;2022-08-19T07:38:31;35.30;;;31.10;;
46439;SDS011;32138;50.966;6.968;2022-08-19T07:40:32;31.58;;;28.10;;
46439;SDS011;32138;50.966;6.968;2022-08-19T07:42:33;36.55;;;32.95;;
46439;SDS011;32138;50.966;6.968;2022-08-19T07:44:34;40.25;;;35.92;;
46439;SDS011;32138;50.966;6.968;2022-08-19T07:46:37;36.90;;;32.97;;
46439;SDS011;32138;50.966;6.968;2022-08-19T07:48:41;39.92;;;36.05;;
46439;SDS011;32138;50.966;6.968;2022-08-19T07:50:46;38.90;;;34.90;;
46439;SDS011;32138;50.966;6.968;2022-08-19T07:52:48;36.60;;;32.50;;
46439;SDS011;32138;50.966;6.968;2022-08-19T07:54:49;43.13;;;38.58;;
46439;SDS011;32138;50.966;6.968;2022-08-19T07:56:50;40.65;;;36.17;;
46439;SDS011;32138;50.966;6.968;2022-08-19T07:58:52;42.05;;;37.58;;
46439;SDS011;32138;50.966;6.968;2022-08-19T08:00:53;41.53;;;37.08;;
46439;SDS011;32138;50.966;6.968;2022-08-19T08:02:54;41.10;;;36.92;;
46439;SDS011;32138;50.966;6.968;2022-08-19T08:04:55;42.15;;;37.15;;
46439;SDS011;32138;50.966;6.968;2022-08-19T08:07:14;44.38;;;40.03;;
46439;SDS011;32138;50.966;6.968;2022-08-19T08:09:35;42.60;;;38.40;;
46439;SDS011;32138;50.966;6.968;2022-08-19T08:11:42;44.67;;;39.13;;
46439;SDS011;32138;50.966;6.968;2022-08-19T08:13:49;41.60;;;37.05;;
46439;SDS011;32138;50.966;6.968;2022-08-19T08:15:51;48.40;;;41.85;;
46439;SDS011;32138;50.966;6.968;2022-08-19T08:17:51;48.70;;;42.83;;
46439;SDS011;32138;50.966;6.968;2022-08-19T08:19:53;47.30;;;42.25;;
46439;SDS011;32138;50.966;6.968;2022-08-19T08:21:55;46.50;;;41.67;;
46439;SDS011;32138;50.966;6.968;2022-08-19T08:23:58;46.50;;;40.83;;
46439;SDS011;32138;50.966;6.968;2022-08-19T08:25:59;47.67;;;41.90;;
46439;SDS011;32138;50.966;6.968;2022-08-19T08:28:02;50.60;;;45.13;;
46439;SDS011;32138;50.966;6.968;2022-08-19T08:30:04;51.85;;;46.47;;
46439;SDS011;32138;50.966;6.968;2022-08-19T08:32:14;77.82;;;69.20;;
46439;SDS011;32138;50.966;6.968;2022-08-19T08:34:15;59.55;;;53.35;;
46439;SDS011;32138;50.966;6.968;2022-08-19T08:36:16;50.42;;;45.40;;
46439;SDS011;32138;50.966;6.968;2022-08-19T08:38:17;53.05;;;47.03;;
46439;SDS011;32138;50.966;6.968;2022-08-19T08:40:21;48.45;;;42.85;;
46439;SDS011;32138;50.966;6.968;2022-08-19T08:42:43;50.97;;;45.63;;
46439;SDS011;32138;50.966;6.968;2022-08-19T08:45:02;47.75;;;42.67;;
46439;SDS011;32138;50.966;6.968;2022-08-19T08:47:17;47.17;;;42.13;;
46439;SDS011;32138;50.966;6.968;2022-08-19T08:51:44;46.40;;;41.38;;
46439;SDS011;32138;50.966;6.968;2022-08-19T08:54:12;63.67;;;55.30;;
46439;SDS011;32138;50.966;6.968;2022-08-19T08:56:15;57.78;;;51.65;;
46439;SDS011;32138;50.966;6.968;2022-08-19T08:58:26;49.63;;;44.20;;
46439;SDS011;32138;50.966;6.968;2022-08-19T09:00:34;49.53;;;40.90;;
46439;SDS011;32138;50.966;6.968;2022-08-19T09:02:45;48.25;;;43.03;;
46439;SDS011;32138;50.966;6.968;2022-08-19T09:04:45;46.22;;;41.25;;
46439;SDS011;32138;50.966;6.968;2022-08-19T09:09:51;49.08;;;43.85;;
46439;SDS011;32138;50.966;6.968;2022-08-19T09:14:32;46.22;;;40.58;;
46439;SDS011;32138;50.966;6.968;2022-08-19T09:16:45;44.40;;;39.55;;
46439;SDS011;32138;50.966;6.968;2022-08-19T09:18:53;43.50;;;38.90;;
46439;SDS011;32138;50.966;6.968;2022-08-19T09:20:58;44.30;;;39.65;;
46439;SDS011;32138;50.966;6.968;2022-08-19T09:22:59;43.65;;;37.88;;
46439;SDS011;32138;50.966;6.968;2022-08-19T09:25:00;48.42;;;39.95;;
46439;SDS011;32138;50.966;6.968;2022-08-19T09:27:04;48.55;;;43.15;;
46439;SDS011;32138;50.966;6.968;2022-08-19T09:29:05;40.13;;;35.97;;
46439;SDS011;32138;50.966;6.968;2022-08-19T09:31:06;42.50;;;37.53;;
46439;SDS011;32138;50.966;6.968;2022-08-19T09:33:07;37.28;;;33.25;;
46439;SDS011;32138;50.966;6.968;2022-08-19T09:35:08;39.83;;;35.58;;
46439;SDS011;32138;50.966;6.968;2022-08-19T09:37:10;45.40;;;38.75;;
46439;SDS011;32138;50.966;6.968;2022-08-19T09:39:13;43.45;;;37.33;;
46439;SDS011;32138;50.966;6.968;2022-08-19T09:41:18;43.70;;;39.10;;
46439;SDS011;32138;50.966;6.968;2022-08-19T09:43:23;41.33;;;35.80;;
46439;SDS011;32138;50.966;6.968;2022-08-19T09:45:26;35.42;;;31.55;;
46439;SDS011;32138;50.966;6.968;2022-08-19T09:47:26;31.17;;;27.27;;
46439;SDS011;32138;50.966;6.968;2022-08-19T09:49:27;29.90;;;26.88;;
46439;SDS011;32138;50.966;6.968;2022-08-19T09:51:28;31.63;;;28.30;;
46439;SDS011;32138;50.966;6.968;2022-08-19T09:53:29;29.33;;;25.58;;
46439;SDS011;32138;50.966;6.968;2022-08-19T09:55:30;29.90;;;26.80;;
46439;SDS011;32138;50.966;6.968;2022-08-19T09:57:30;28.17;;;25.10;;
46439;SDS011;32138;50.966;6.968;2022-08-19T09:59:32;27.60;;;24.73;;
46439;SDS011;32138;50.966;6.968;2022-08-19T10:01:33;25.02;;;22.58;;
46439;SDS011;32138;50.966;6.968;2022-08-19T10:03:34;23.88;;;20.52;;
46439;SDS011;32138;50.966;6.968;2022-08-19T10:05:36;22.35;;;20.23;;
46439;SDS011;32138;50.966;6.968;2022-08-19T10:07:49;22.42;;;20.13;;
46439;SDS011;32138;50.966;6.968;2022-08-19T10:09:50;22.48;;;19.35;;
46439;SDS011;32138;50.966;6.968;2022-08-19T10:11:51;19.38;;;15.95;;
46439;SDS011;32138;50.966;6.968;2022-08-19T10:13:52;18.25;;;15.45;;
46439;SDS011;32138;50.966;6.968;2022-08-19T10:15:55;19.45;;;16.30;;
46439;SDS011;32138;50.966;6.968;2022-08-19T10:18:03;15.65;;;13.98;;
46439;SDS011;32138;50.966;6.968;2022-08-19T10:20:05;16.02;;;14.40;;
46439;SDS011;32138;50.966;6.968;2022-08-19T10:22:07;14.52;;;13.02;;
46439;SDS011;32138;50.966;6.968;2022-08-19T10:24:07;14.65;;;13.15;;
46439;SDS011;32138;50.966;6.968;2022-08-19T10:26:08;16.40;;;14.70;;
46439;SDS011;32138;50.966;6.968;2022-08-19T10:28:09;15.38;;;13.50;;
46439;SDS011;32138;50.966;6.968;2022-08-19T10:30:12;20.23;;;17.83;;
46439;SDS011;32138;50.966;6.968;2022-08-19T10:32:13;23.50;;;21.20;;
46439;SDS011;32138;50.966;6.968;2022-08-19T10:34:14;26.17;;;19.15;;
46439;SDS011;32138;50.966;6.968;2022-08-19T10:36:16;25.48;;;21.77;;
46439;SDS011;32138;50.966;6.968;2022-08-19T10:38:19;24.25;;;21.83;;
46439;SDS011;32138;50.966;6.968;2022-08-19T10:40:21;23.63;;;21.27;;
46439;SDS011;32138;50.966;6.968;2022-08-19T10:42:22;24.10;;;21.70;;
46439;SDS011;32138;50.966;6.968;2022-08-19T10:44:23;23.20;;;20.83;;
46439;SDS011;32138;50.966;6.968;2022-08-19T10:46:24;25.33;;;22.73;;
46439;SDS011;32138;50.966;6.968;2022-08-19T10:48:27;23.27;;;19.80;;
46439;SDS011;32138;50.966;6.968;2022-08-19T10:50:28;23.80;;;21.30;;
46439;SDS011;32138;50.966;6.968;2022-08-19T10:52:48;22.45;;;20.15;;
46439;SDS011;32138;50.966;6.968;2022-08-19T10:54:50;22.98;;;20.65;;
46439;SDS011;32138;50.966;6.968;2022-08-19T10:57:09;22.90;;;19.67;;
46439;SDS011;32138;50.966;6.968;2022-08-19T10:59:10;20.25;;;18.15;;
46439;SDS011;32138;50.966;6.968;2022-08-19T11:01:13;25.63;;;22.63;;
46439;SDS011;32138;50.966;6.968;2022-08-19T11:03:14;24.63;;;22.13;;
46439;SDS011;32138;50.966;6.968;2022-08-19T11:05:15;24.35;;;21.20;;
46439;SDS011;32138;50.966;6.968;2022-08-19T11:07:17;25.85;;;22.05;;
46439;SDS011;32138;50.966;6.968;2022-08-19T11:09:20;24.70;;;22.17;;
46439;SDS011;32138;50.966;6.968;2022-08-19T11:11:26;28.65;;;22.52;;
46439;SDS011;32138;50.966;6.968;2022-08-19T11:13:28;25.33;;;22.83;;
46439;SDS011;32138;50.966;6.968;2022-08-19T11:15:33;25.80;;;23.48;;
46439;SDS011;32138;50.966;6.968;2022-08-19T11:17:34;25.40;;;22.88;;
46439;SDS011;32138;50.966;6.968;2022-08-19T11:19:35;23.63;;;21.23;;
46439;SDS011;32138;50.966;6.968;2022-08-19T11:21:37;26.73;;;24.15;;
46439;SDS011;32138;50.966;6.968;2022-08-19T11:23:41;22.30;;;19.88;;
46439;SDS011;32138;50.966;6.968;2022-08-19T11:25:43;22.55;;;20.02;;
46439;SDS011;32138;50.966;6.968;2022-08-19T11:27:45;21.55;;;19.35;;
46439;SDS011;32138;50.966;6.968;2022-08-19T11:29:47;20.17;;;18.17;;
46439;SDS011;32138;50.966;6.968;2022-08-19T11:31:48;22.55;;;20.40;;
46439;SDS011;32138;50.966;6.968;2022-08-19T11:33:49;22.02;;;19.83;;
46439;SDS011;32138;50.966;6.968;2022-08-19T11:35:51;19.98;;;18.02;;
46439;SDS011;32138;50.966;6.968;2022-08-19T11:37:53;21.27;;;19.00;;
46439;SDS011;32138;50.966;6.968;2022-08-19T11:39:54;20.42;;;18.08;;
46439;SDS011;32138;50.966;6.968;2022-08-19T11:41:55;20.88;;;18.88;;
46439;SDS011;32138;50.966;6.968;2022-08-19T11:43:58;20.30;;;18.60;;
46439;SDS011;32138;50.966;6.968;2022-08-19T11:45:59;21.63;;;19.67;;
46439;SDS011;32138;50.966;6.968;2022-08-19T11:48:06;19.70;;;17.63;;
46439;SDS011;32138;50.966;6.968;2022-08-19T11:50:07;19.75;;;17.75;;
46439;SDS011;32138;50.966;6.968;2022-08-19T11:52:09;18.90;;;15.75;;
46439;SDS011;32138;50.966;6.968;2022-08-19T11:54:11;17.90;;;14.80;;
46439;SDS011;32138;50.966;6.968;2022-08-19T11:56:13;16.67;;;14.77;;
46439;SDS011;32138;50.966;6.968;2022-08-19T11:58:15;18.70;;;14.30;;
46439;SDS011;32138;50.966;6.968;2022-08-19T12:00:17;19.10;;;15.38;;
46439;SDS011;32138;50.966;6.968;2022-08-19T12:02:18;16.65;;;14.95;;
46439;SDS011;32138;50.966;6.968;2022-08-19T12:04:19;16.45;;;14.13;;
46439;SDS011;32138;50.966;6.968;2022-08-19T12:06:21;17.27;;;14.98;;
46439;SDS011;32138;50.966;6.968;2022-08-19T12:08:28;15.80;;;14.38;;
46439;SDS011;32138;50.966;6.968;2022-08-19T12:10:28;15.20;;;13.38;;